High temp

Not for real navigation. The accuracy of this data is not assured See disclaimer for more information



ICAO NAME COUNTRY WIND Kt GUST Kt VIS m TEMP/DEW C BARO METAR
GOTT Tambacounda Senegal 4 0 9999 39/8 29.68 GOTT 211800Z VRB04KT CAVOK 39/08 Q1005
FYML 5 0 9999 38/3 29.91 FYML 211800Z AUTO 14005KT //// // ////// 38/03 Q1013
GOTK Kedougou Senegal 0 0 9999 38/16 29.71 GOTK 211800Z 00000KT CAVOK 38/16 Q1006
GOGK Kolda Senegal 0 0 9999 38/14 29.71 GOGK 211800Z 00000KT CAVOK 38/14 Q1006
MSSM San Miguel / El Papalon El Salvador 5 0 9999 37/14 29.89 MSSM 211850Z 16005KT CAVOK 37/14 Q1012 A2989

Show more